sensor_id;sensor_type;location;lat;lon;timestamp;temperature;humidity
40738;DHT22;54759;48.094;-1.628;2023-03-01T00:01:47;20.00;32.30
40738;DHT22;54759;48.094;-1.628;2023-03-01T00:04:49;19.60;32.20
40738;DHT22;54759;48.094;-1.628;2023-03-01T00:07:52;20.10;32.40
40738;DHT22;54759;48.094;-1.628;2023-03-01T00:11:02;20.20;30.20
40738;DHT22;54759;48.094;-1.628;2023-03-01T00:14:03;19.60;32.00
40738;DHT22;54759;48.094;-1.628;2023-03-01T00:17:06;20.00;32.40
40738;DHT22;54759;48.094;-1.628;2023-03-01T00:20:07;20.00;32.60
40738;DHT22;54759;48.094;-1.628;2023-03-01T00:23:10;19.70;32.20
40738;DHT22;54759;48.094;-1.628;2023-03-01T00:26:12;20.00;32.10
40738;DHT22;54759;48.094;-1.628;2023-03-01T00:29:14;19.40;32.10
40738;DHT22;54759;48.094;-1.628;2023-03-01T00:32:16;19.90;32.50
40738;DHT22;54759;48.094;-1.628;2023-03-01T00:35:18;20.00;32.50
40738;DHT22;54759;48.094;-1.628;2023-03-01T00:38:19;20.10;32.70
40738;DHT22;54759;48.094;-1.628;2023-03-01T00:41:20;20.00;32.50
40738;DHT22;54759;48.094;-1.628;2023-03-01T00:44:23;19.90;32.50
40738;DHT22;54759;48.094;-1.628;2023-03-01T00:47:25;19.80;32.60
40738;DHT22;54759;48.094;-1.628;2023-03-01T00:50:26;19.90;32.50
40738;DHT22;54759;48.094;-1.628;2023-03-01T00:53:27;19.60;32.40
40738;DHT22;54759;48.094;-1.628;2023-03-01T00:56:29;20.10;32.30
40738;DHT22;54759;48.094;-1.628;2023-03-01T00:59:32;19.70;33.10
40738;DHT22;54759;48.094;-1.628;2023-03-01T01:02:34;19.80;32.40
40738;DHT22;54759;48.094;-1.628;2023-03-01T01:05:35;19.70;32.40
40738;DHT22;54759;48.094;-1.628;2023-03-01T01:08:37;19.70;32.50
40738;DHT22;54759;48.094;-1.628;2023-03-01T01:11:38;20.20;32.50
40738;DHT22;54759;48.094;-1.628;2023-03-01T01:14:39;19.90;32.60
40738;DHT22;54759;48.094;-1.628;2023-03-01T01:17:41;20.00;33.30
40738;DHT22;54759;48.094;-1.628;2023-03-01T01:20:43;19.90;32.60
40738;DHT22;54759;48.094;-1.628;2023-03-01T01:23:44;19.50;32.60
40738;DHT22;54759;48.094;-1.628;2023-03-01T01:26:46;19.50;32.40
40738;DHT22;54759;48.094;-1.628;2023-03-01T01:29:47;19.50;32.30
40738;DHT22;54759;48.094;-1.628;2023-03-01T01:32:49;19.90;32.70
40738;DHT22;54759;48.094;-1.628;2023-03-01T01:35:50;19.50;32.50
40738;DHT22;54759;48.094;-1.628;2023-03-01T01:38:52;19.80;32.80
40738;DHT22;54759;48.094;-1.628;2023-03-01T01:41:54;20.00;32.50
40738;DHT22;54759;48.094;-1.628;2023-03-01T01:48:13;19.60;32.40
40738;DHT22;54759;48.094;-1.628;2023-03-01T01:51:18;19.80;32.60
40738;DHT22;54759;48.094;-1.628;2023-03-01T01:54:20;19.80;32.40
40738;DHT22;54759;48.094;-1.628;2023-03-01T01:57:25;19.90;32.70
40738;DHT22;54759;48.094;-1.628;2023-03-01T02:00:27;19.40;32.10
40738;DHT22;54759;48.094;-1.628;2023-03-01T02:03:31;19.80;32.40
40738;DHT22;54759;48.094;-1.628;2023-03-01T02:06:35;19.80;32.50
40738;DHT22;54759;48.094;-1.628;2023-03-01T02:09:38;19.90;32.50
40738;DHT22;54759;48.094;-1.628;2023-03-01T02:12:39;20.10;32.70
40738;DHT22;54759;48.094;-1.628;2023-03-01T02:15:40;19.80;32.50
40738;DHT22;54759;48.094;-1.628;2023-03-01T02:18:45;19.70;32.30
40738;DHT22;54759;48.094;-1.628;2023-03-01T02:21:48;19.60;32.50
40738;DHT22;54759;48.094;-1.628;2023-03-01T02:24:55;19.70;32.40
40738;DHT22;54759;48.094;-1.628;2023-03-01T02:28:00;19.60;32.40
40738;DHT22;54759;48.094;-1.628;2023-03-01T02:31:05;19.50;32.40
40738;DHT22;54759;48.094;-1.628;2023-03-01T02:34:23;19.40;32.40
40738;DHT22;54759;48.094;-1.628;2023-03-01T02:37:28;19.90;32.50
40738;DHT22;54759;48.094;-1.628;2023-03-01T02:40:29;19.40;32.50
40738;DHT22;54759;48.094;-1.628;2023-03-01T02:43:32;19.70;32.50
40738;DHT22;54759;48.094;-1.628;2023-03-01T02:46:41;19.80;32.60
40738;DHT22;54759;48.094;-1.628;2023-03-01T02:49:43;19.40;32.50
40738;DHT22;54759;48.094;-1.628;2023-03-01T02:52:45;19.70;32.70
40738;DHT22;54759;48.094;-1.628;2023-03-01T02:55:48;19.40;32.40
40738;DHT22;54759;48.094;-1.628;2023-03-01T02:58:50;19.90;32.60
40738;DHT22;54759;48.094;-1.628;2023-03-01T03:01:54;19.70;32.20
40738;DHT22;54759;48.094;-1.628;2023-03-01T03:04:55;19.70;33.30
40738;DHT22;54759;48.094;-1.628;2023-03-01T03:07:57;19.40;32.50
40738;DHT22;54759;48.094;-1.628;2023-03-01T03:10:59;19.70;32.60
40738;DHT22;54759;48.094;-1.628;2023-03-01T03:14:01;19.70;32.60
40738;DHT22;54759;48.094;-1.628;2023-03-01T03:17:03;19.60;32.70
40738;DHT22;54759;48.094;-1.628;2023-03-01T03:20:07;19.30;32.40
40738;DHT22;54759;48.094;-1.628;2023-03-01T03:23:12;19.70;32.50
40738;DHT22;54759;48.094;-1.628;2023-03-01T03:26:13;19.30;32.40
40738;DHT22;54759;48.094;-1.628;2023-03-01T03:29:15;19.60;32.40
40738;DHT22;54759;48.094;-1.628;2023-03-01T03:32:17;19.40;32.40
40738;DHT22;54759;48.094;-1.628;2023-03-01T03:35:19;19.50;32.50
40738;DHT22;54759;48.094;-1.628;2023-03-01T03:38:21;19.70;32.40
40738;DHT22;54759;48.094;-1.628;2023-03-01T03:41:22;19.60;32.70
40738;DHT22;54759;48.094;-1.628;2023-03-01T03:44:24;19.70;32.40
40738;DHT22;54759;48.094;-1.628;2023-03-01T03:47:25;19.70;32.70
40738;DHT22;54759;48.094;-1.628;2023-03-01T03:50:27;19.20;32.30
40738;DHT22;54759;48.094;-1.628;2023-03-01T03:53:28;19.70;33.20
40738;DHT22;54759;48.094;-1.628;2023-03-01T03:56:30;19.80;32.50
40738;DHT22;54759;48.094;-1.628;2023-03-01T03:59:32;19.60;32.40
40738;DHT22;54759;48.094;-1.628;2023-03-01T04:07:02;19.80;30.30
40738;DHT22;54759;48.094;-1.628;2023-03-01T04:10:04;19.50;32.40
40738;DHT22;54759;48.094;-1.628;2023-03-01T04:13:08;19.70;32.50
40738;DHT22;54759;48.094;-1.628;2023-03-01T04:16:10;19.60;32.40
40738;DHT22;54759;48.094;-1.628;2023-03-01T04:42:09;19.70;30.40
40738;DHT22;54759;48.094;-1.628;2023-03-01T04:45:13;19.40;32.40
40738;DHT22;54759;48.094;-1.628;2023-03-01T04:48:15;19.80;32.80
40738;DHT22;54759;48.094;-1.628;2023-03-01T05:04:55;19.60;30.20
40738;DHT22;54759;48.094;-1.628;2023-03-01T05:07:59;19.70;32.70
40738;DHT22;54759;48.094;-1.628;2023-03-01T05:15:35;19.70;30.30
40738;DHT22;54759;48.094;-1.628;2023-03-01T05:18:37;19.40;32.40
40738;DHT22;54759;48.094;-1.628;2023-03-01T05:21:39;19.40;32.20
40738;DHT22;54759;48.094;-1.628;2023-03-01T05:25:00;19.20;32.30
40738;DHT22;54759;48.094;-1.628;2023-03-01T05:28:02;19.50;32.50
40738;DHT22;54759;48.094;-1.628;2023-03-01T05:31:05;19.60;32.40
40738;DHT22;54759;48.094;-1.628;2023-03-01T05:34:10;19.20;32.10
40738;DHT22;54759;48.094;-1.628;2023-03-01T05:40:56;19.50;32.40
40738;DHT22;54759;48.094;-1.628;2023-03-01T05:43:57;19.60;30.10
40738;DHT22;54759;48.094;-1.628;2023-03-01T05:51:28;19.60;30.10
40738;DHT22;54759;48.094;-1.628;2023-03-01T05:58:59;19.60;30.20
40738;DHT22;54759;48.094;-1.628;2023-03-01T06:02:01;19.60;32.50
40738;DHT22;54759;48.094;-1.628;2023-03-01T06:05:02;19.30;32.40
40738;DHT22;54759;48.094;-1.628;2023-03-01T06:08:04;19.60;32.50
40738;DHT22;54759;48.094;-1.628;2023-03-01T06:11:05;19.20;32.40
40738;DHT22;54759;48.094;-1.628;2023-03-01T06:14:08;19.70;32.50
40738;DHT22;54759;48.094;-1.628;2023-03-01T06:17:11;19.20;32.20
40738;DHT22;54759;48.094;-1.628;2023-03-01T06:20:13;19.50;32.50
40738;DHT22;54759;48.094;-1.628;2023-03-01T06:23:15;19.30;32.10
40738;DHT22;54759;48.094;-1.628;2023-03-01T06:26:17;19.10;32.30
40738;DHT22;54759;48.094;-1.628;2023-03-01T06:29:19;19.50;32.50
40738;DHT22;54759;48.094;-1.628;2023-03-01T06:32:20;19.70;32.40
40738;DHT22;54759;48.094;-1.628;2023-03-01T06:35:22;19.50;32.40
40738;DHT22;54759;48.094;-1.628;2023-03-01T06:38:23;19.20;32.30
40738;DHT22;54759;48.094;-1.628;2023-03-01T06:41:24;19.50;32.50
40738;DHT22;54759;48.094;-1.628;2023-03-01T06:44:27;19.90;32.60
40738;DHT22;54759;48.094;-1.628;2023-03-01T06:47:29;19.20;32.30
40738;DHT22;54759;48.094;-1.628;2023-03-01T06:50:30;19.60;32.40
40738;DHT22;54759;48.094;-1.628;2023-03-01T06:53:31;19.30;32.20
40738;DHT22;54759;48.094;-1.628;2023-03-01T06:56:33;19.70;33.10
40738;DHT22;54759;48.094;-1.628;2023-03-01T07:04:10;19.60;30.00
40738;DHT22;54759;48.094;-1.628;2023-03-01T07:07:11;19.90;32.30
40738;DHT22;54759;48.094;-1.628;2023-03-01T07:10:12;19.50;32.20
40738;DHT22;54759;48.094;-1.628;2023-03-01T07:13:14;19.70;32.20
40738;DHT22;54759;48.094;-1.628;2023-03-01T07:16:15;19.60;32.00
40738;DHT22;54759;48.094;-1.628;2023-03-01T07:19:17;19.80;31.70
40738;DHT22;54759;48.094;-1.628;2023-03-01T07:22:18;19.60;31.90
40738;DHT22;54759;48.094;-1.628;2023-03-01T07:25:20;20.00;32.00
40738;DHT22;54759;48.094;-1.628;2023-03-01T07:28:22;19.70;31.60
40738;DHT22;54759;48.094;-1.628;2023-03-01T07:31:23;19.90;31.60
40738;DHT22;54759;48.094;-1.628;2023-03-01T07:34:25;19.50;31.10
40738;DHT22;54759;48.094;-1.628;2023-03-01T07:37:26;19.90;31.50
40738;DHT22;54759;48.094;-1.628;2023-03-01T07:40:28;19.60;31.30
40738;DHT22;54759;48.094;-1.628;2023-03-01T07:43:29;20.10;31.50
40738;DHT22;54759;48.094;-1.628;2023-03-01T07:46:31;20.00;31.20
40738;DHT22;54759;48.094;-1.628;2023-03-01T07:49:33;20.20;31.40
40738;DHT22;54759;48.094;-1.628;2023-03-01T07:52:35;19.70;31.20
40738;DHT22;54759;48.094;-1.628;2023-03-01T07:55:36;20.00;31.10
40738;DHT22;54759;48.094;-1.628;2023-03-01T07:58:38;19.60;30.60
40738;DHT22;54759;48.094;-1.628;2023-03-01T08:01:40;20.10;31.10
40738;DHT22;54759;48.094;-1.628;2023-03-01T08:04:42;20.10;31.00
40738;DHT22;54759;48.094;-1.628;2023-03-01T08:07:43;20.20;30.60
40738;DHT22;54759;48.094;-1.628;2023-03-01T08:10:44;20.20;30.70
40738;DHT22;54759;48.094;-1.628;2023-03-01T08:13:46;20.30;31.00
40738;DHT22;54759;48.094;-1.628;2023-03-01T08:16:52;19.90;30.50
40738;DHT22;54759;48.094;-1.628;2023-03-01T08:19:54;20.20;30.80
40738;DHT22;54759;48.094;-1.628;2023-03-01T08:22:57;19.90;30.60
40738;DHT22;54759;48.094;-1.628;2023-03-01T08:26:06;20.40;30.60
40738;DHT22;54759;48.094;-1.628;2023-03-01T08:29:08;20.00;30.40
40738;DHT22;54759;48.094;-1.628;2023-03-01T08:32:09;20.40;30.70
40738;DHT22;54759;48.094;-1.628;2023-03-01T08:35:11;20.40;30.50
40738;DHT22;54759;48.094;-1.628;2023-03-01T08:38:13;20.50;30.40
40738;DHT22;54759;48.094;-1.628;2023-03-01T08:41:14;20.40;30.40
40738;DHT22;54759;48.094;-1.628;2023-03-01T08:44:16;20.60;30.60
40738;DHT22;54759;48.094;-1.628;2023-03-01T08:47:17;20.30;30.30
40738;DHT22;54759;48.094;-1.628;2023-03-01T08:50:20;20.60;30.50
40738;DHT22;54759;48.094;-1.628;2023-03-01T08:53:21;20.70;29.60
40738;DHT22;54759;48.094;-1.628;2023-03-01T09:03:09;20.40;28.70
40738;DHT22;54759;48.094;-1.628;2023-03-01T09:23:46;20.80;28.70
40738;DHT22;54759;48.094;-1.628;2023-03-01T09:30:13;20.80;28.80
40738;DHT22;54759;48.094;-1.628;2023-03-01T09:36:39;20.90;28.60
40738;DHT22;54759;48.094;-1.628;2023-03-01T09:39:41;21.00;28.60
40738;DHT22;54759;48.094;-1.628;2023-03-01T09:56:51;21.10;28.60
40738;DHT22;54759;48.094;-1.628;2023-03-01T09:59:58;21.00;29.20
40738;DHT22;54759;48.094;-1.628;2023-03-01T10:03:03;21.00;29.90
40738;DHT22;54759;48.094;-1.628;2023-03-01T10:06:11;21.10;30.00
40738;DHT22;54759;48.094;-1.628;2023-03-01T10:09:33;20.80;29.80
40738;DHT22;54759;48.094;-1.628;2023-03-01T10:26:37;21.00;28.60
40738;DHT22;54759;48.094;-1.628;2023-03-01T10:29:42;21.20;29.20
40738;DHT22;54759;48.094;-1.628;2023-03-01T10:52:23;21.20;29.20
40738;DHT22;54759;48.094;-1.628;2023-03-01T10:55:26;21.30;29.90
40738;DHT22;54759;48.094;-1.628;2023-03-01T11:05:17;20.90;28.30
40738;DHT22;54759;48.094;-1.628;2023-03-01T11:11:35;21.20;29.60
40738;DHT22;54759;48.094;-1.628;2023-03-01T11:19:18;21.20;28.30
40738;DHT22;54759;48.094;-1.628;2023-03-01T11:22:19;20.90;29.50
40738;DHT22;54759;48.094;-1.628;2023-03-01T11:25:23;21.30;29.70
40738;DHT22;54759;48.094;-1.628;2023-03-01T11:28:26;21.10;29.50
40738;DHT22;54759;48.094;-1.628;2023-03-01T11:31:28;21.50;29.70
40738;DHT22;54759;48.094;-1.628;2023-03-01T11:34:35;21.10;29.60
40738;DHT22;54759;48.094;-1.628;2023-03-01T11:37:40;21.60;29.70
40738;DHT22;54759;48.094;-1.628;2023-03-01T11:40:46;21.00;29.50
40738;DHT22;54759;48.094;-1.628;2023-03-01T11:43:51;21.40;29.70
40738;DHT22;54759;48.094;-1.628;2023-03-01T11:50:13;21.40;28.80
40738;DHT22;54759;48.094;-1.628;2023-03-01T11:53:22;21.00;29.30
40738;DHT22;54759;48.094;-1.628;2023-03-01T11:56:27;21.50;29.70
40738;DHT22;54759;48.094;-1.628;2023-03-01T11:59:39;21.20;29.40
40738;DHT22;54759;48.094;-1.628;2023-03-01T12:02:52;21.00;29.40
40738;DHT22;54759;48.094;-1.628;2023-03-01T12:06:02;21.00;29.40
40738;DHT22;54759;48.094;-1.628;2023-03-01T12:09:12;21.50;29.60
40738;DHT22;54759;48.094;-1.628;2023-03-01T12:12:25;21.20;29.40
40738;DHT22;54759;48.094;-1.628;2023-03-01T12:15:32;21.50;29.50
40738;DHT22;54759;48.094;-1.628;2023-03-01T12:18:39;21.40;29.40
40738;DHT22;54759;48.094;-1.628;2023-03-01T12:21:46;21.10;29.30
40738;DHT22;54759;48.094;-1.628;2023-03-01T12:24:54;21.00;29.30
40738;DHT22;54759;48.094;-1.628;2023-03-01T12:28:04;21.50;29.50
40738;DHT22;54759;48.094;-1.628;2023-03-01T12:31:16;21.20;29.30
40738;DHT22;54759;48.094;-1.628;2023-03-01T12:34:30;21.50;29.40
40738;DHT22;54759;48.094;-1.628;2023-03-01T12:37:37;21.00;29.20
40738;DHT22;54759;48.094;-1.628;2023-03-01T12:40:48;21.60;29.40
40738;DHT22;54759;48.094;-1.628;2023-03-01T12:43:58;21.20;29.20
40738;DHT22;54759;48.094;-1.628;2023-03-01T12:47:10;21.50;29.40
40738;DHT22;54759;48.094;-1.628;2023-03-01T12:50:14;21.00;29.20
40738;DHT22;54759;48.094;-1.628;2023-03-01T12:53:21;21.50;29.30
40738;DHT22;54759;48.094;-1.628;2023-03-01T12:56:24;21.50;29.30
40738;DHT22;54759;48.094;-1.628;2023-03-01T12:59:27;21.60;29.40
40738;DHT22;54759;48.094;-1.628;2023-03-01T13:02:38;21.20;29.20
40738;DHT22;54759;48.094;-1.628;2023-03-01T13:19:32;21.50;28.90
40738;DHT22;54759;48.094;-1.628;2023-03-01T13:22:35;21.50;29.40
40738;DHT22;54759;48.094;-1.628;2023-03-01T13:29:25;21.40;29.20
40738;DHT22;54759;48.094;-1.628;2023-03-01T13:32:27;21.50;29.20
40738;DHT22;54759;48.094;-1.628;2023-03-01T13:35:44;21.50;29.30
40738;DHT22;54759;48.094;-1.628;2023-03-01T13:38:46;21.30;29.20
40738;DHT22;54759;48.094;-1.628;2023-03-01T13:41:49;21.60;29.20
40738;DHT22;54759;48.094;-1.628;2023-03-01T13:44:51;21.50;29.20
40738;DHT22;54759;48.094;-1.628;2023-03-01T13:47:56;21.50;29.30
40738;DHT22;54759;48.094;-1.628;2023-03-01T13:51:00;21.40;29.20
40738;DHT22;54759;48.094;-1.628;2023-03-01T13:54:09;21.60;29.30
40738;DHT22;54759;48.094;-1.628;2023-03-01T13:57:12;21.80;29.40
40738;DHT22;54759;48.094;-1.628;2023-03-01T14:00:26;21.60;29.30
40738;DHT22;54759;48.094;-1.628;2023-03-01T14:03:28;21.50;29.30
40738;DHT22;54759;48.094;-1.628;2023-03-01T14:06:32;21.50;29.30
40738;DHT22;54759;48.094;-1.628;2023-03-01T14:09:37;21.50;29.30
40738;DHT22;54759;48.094;-1.628;2023-03-01T14:12:41;21.60;29.30
40738;DHT22;54759;48.094;-1.628;2023-03-01T14:15:47;21.50;29.20
40738;DHT22;54759;48.094;-1.628;2023-03-01T14:18:53;21.50;29.20
40738;DHT22;54759;48.094;-1.628;2023-03-01T14:22:03;21.40;29.10
40738;DHT22;54759;48.094;-1.628;2023-03-01T14:25:14;21.80;29.20
40738;DHT22;54759;48.094;-1.628;2023-03-01T14:28:17;21.40;29.20
40738;DHT22;54759;48.094;-1.628;2023-03-01T14:34:42;21.10;29.10
40738;DHT22;54759;48.094;-1.628;2023-03-01T14:37:45;21.70;28.20
40738;DHT22;54759;48.094;-1.628;2023-03-01T14:40:47;21.30;29.20
40738;DHT22;54759;48.094;-1.628;2023-03-01T14:43:53;21.60;29.30
40738;DHT22;54759;48.094;-1.628;2023-03-01T14:46:58;21.20;28.60
40738;DHT22;54759;48.094;-1.628;2023-03-01T14:59:08;21.50;28.10
40738;DHT22;54759;48.094;-1.628;2023-03-01T15:02:11;21.40;29.10
40738;DHT22;54759;48.094;-1.628;2023-03-01T15:05:18;21.40;29.10
40738;DHT22;54759;48.094;-1.628;2023-03-01T15:08:25;21.50;29.20
40738;DHT22;54759;48.094;-1.628;2023-03-01T15:11:34;21.60;29.20
40738;DHT22;54759;48.094;-1.628;2023-03-01T15:14:40;21.60;29.20
40738;DHT22;54759;48.094;-1.628;2023-03-01T15:17:42;21.60;29.00
40738;DHT22;54759;48.094;-1.628;2023-03-01T15:20:43;21.20;29.00
40738;DHT22;54759;48.094;-1.628;2023-03-01T15:23:47;21.60;29.10
40738;DHT22;54759;48.094;-1.628;2023-03-01T15:26:50;21.50;29.00
40738;DHT22;54759;48.094;-1.628;2023-03-01T15:29:57;21.60;29.10
40738;DHT22;54759;48.094;-1.628;2023-03-01T15:39:52;21.40;28.30
40738;DHT22;54759;48.094;-1.628;2023-03-01T15:42:54;21.60;28.80
40738;DHT22;54759;48.094;-1.628;2023-03-01T15:45:57;21.50;29.40
40738;DHT22;54759;48.094;-1.628;2023-03-01T15:49:00;21.20;29.20
40738;DHT22;54759;48.094;-1.628;2023-03-01T15:52:02;21.60;29.20
40738;DHT22;54759;48.094;-1.628;2023-03-01T15:55:05;21.60;29.20
40738;DHT22;54759;48.094;-1.628;2023-03-01T15:58:09;21.60;29.10
40738;DHT22;54759;48.094;-1.628;2023-03-01T16:01:13;21.60;29.00
40738;DHT22;54759;48.094;-1.628;2023-03-01T16:07:24;21.50;28.20
40738;DHT22;54759;48.094;-1.628;2023-03-01T16:10:29;21.50;29.00
40738;DHT22;54759;48.094;-1.628;2023-03-01T16:13:32;21.60;29.00
40738;DHT22;54759;48.094;-1.628;2023-03-01T16:16:34;21.70;29.10
40738;DHT22;54759;48.094;-1.628;2023-03-01T16:19:36;21.80;29.20
40738;DHT22;54759;48.094;-1.628;2023-03-01T16:22:38;21.40;28.90
40738;DHT22;54759;48.094;-1.628;2023-03-01T16:25:40;21.80;29.10
40738;DHT22;54759;48.094;-1.628;2023-03-01T16:28:41;21.60;29.00
40738;DHT22;54759;48.094;-1.628;2023-03-01T16:31:43;21.70;29.10
40738;DHT22;54759;48.094;-1.628;2023-03-01T16:34:45;21.80;29.00
40738;DHT22;54759;48.094;-1.628;2023-03-01T16:37:49;21.90;29.00
40738;DHT22;54759;48.094;-1.628;2023-03-01T16:40:53;21.70;29.00
40738;DHT22;54759;48.094;-1.628;2023-03-01T16:43:54;21.80;29.00
40738;DHT22;54759;48.094;-1.628;2023-03-01T16:46:56;21.80;29.00
40738;DHT22;54759;48.094;-1.628;2023-03-01T16:49:57;21.80;28.90
40738;DHT22;54759;48.094;-1.628;2023-03-01T16:52:59;21.80;28.90
40738;DHT22;54759;48.094;-1.628;2023-03-01T16:56:00;22.00;29.50
40738;DHT22;54759;48.094;-1.628;2023-03-01T16:59:02;21.80;28.80
40738;DHT22;54759;48.094;-1.628;2023-03-01T17:02:08;22.00;28.90
40738;DHT22;54759;48.094;-1.628;2023-03-01T17:05:11;21.80;28.80
40738;DHT22;54759;48.094;-1.628;2023-03-01T17:08:13;22.00;28.90
40738;DHT22;54759;48.094;-1.628;2023-03-01T17:11:15;21.80;28.80
40738;DHT22;54759;48.094;-1.628;2023-03-01T17:14:17;21.80;28.80
40738;DHT22;54759;48.094;-1.628;2023-03-01T17:17:21;21.50;28.80
40738;DHT22;54759;48.094;-1.628;2023-03-01T17:20:22;21.80;28.90
40738;DHT22;54759;48.094;-1.628;2023-03-01T17:23:24;21.50;28.80
40738;DHT22;54759;48.094;-1.628;2023-03-01T17:26:26;21.90;29.00
40738;DHT22;54759;48.094;-1.628;2023-03-01T17:29:29;21.60;28.80
40738;DHT22;54759;48.094;-1.628;2023-03-01T17:32:31;21.90;28.90
40738;DHT22;54759;48.094;-1.628;2023-03-01T17:35:33;21.90;29.00
40738;DHT22;54759;48.094;-1.628;2023-03-01T17:38:37;22.00;29.00
40738;DHT22;54759;48.094;-1.628;2023-03-01T17:41:39;21.50;28.70
40738;DHT22;54759;48.094;-1.628;2023-03-01T17:44:40;21.50;28.90
40738;DHT22;54759;48.094;-1.628;2023-03-01T17:47:44;21.90;29.00
40738;DHT22;54759;48.094;-1.628;2023-03-01T17:50:45;22.00;29.00
40738;DHT22;54759;48.094;-1.628;2023-03-01T17:53:46;21.60;28.90
40738;DHT22;54759;48.094;-1.628;2023-03-01T17:56:48;21.90;29.00
40738;DHT22;54759;48.094;-1.628;2023-03-01T17:59:49;21.90;29.00
40738;DHT22;54759;48.094;-1.628;2023-03-01T18:02:52;22.00;29.10
40738;DHT22;54759;48.094;-1.628;2023-03-01T18:05:54;21.80;29.00
40738;DHT22;54759;48.094;-1.628;2023-03-01T18:08:57;22.10;29.20
40738;DHT22;54759;48.094;-1.628;2023-03-01T18:11:58;22.00;29.20
40738;DHT22;54759;48.094;-1.628;2023-03-01T18:14:59;22.10;29.00
40738;DHT22;54759;48.094;-1.628;2023-03-01T18:18:01;21.50;28.90
40738;DHT22;54759;48.094;-1.628;2023-03-01T18:21:04;22.00;29.20
40738;DHT22;54759;48.094;-1.628;2023-03-01T18:24:06;21.70;29.10
40738;DHT22;54759;48.094;-1.628;2023-03-01T18:27:08;21.90;29.30
40738;DHT22;54759;48.094;-1.628;2023-03-01T18:30:11;21.80;29.20
40738;DHT22;54759;48.094;-1.628;2023-03-01T18:33:13;21.80;29.20
40738;DHT22;54759;48.094;-1.628;2023-03-01T18:36:16;21.40;29.10
40738;DHT22;54759;48.094;-1.628;2023-03-01T18:39:17;22.00;29.20
40738;DHT22;54759;48.094;-1.628;2023-03-01T18:42:20;21.80;29.20
40738;DHT22;54759;48.094;-1.628;2023-03-01T18:45:23;21.80;29.40
40738;DHT22;54759;48.094;-1.628;2023-03-01T18:48:25;21.80;29.30
40738;DHT22;54759;48.094;-1.628;2023-03-01T18:51:26;21.80;29.40
40738;DHT22;54759;48.094;-1.628;2023-03-01T18:54:28;21.50;29.30
40738;DHT22;54759;48.094;-1.628;2023-03-01T18:57:31;21.80;29.50
40738;DHT22;54759;48.094;-1.628;2023-03-01T19:00:32;21.30;29.40
40738;DHT22;54759;48.094;-1.628;2023-03-01T19:03:34;21.70;29.50
40738;DHT22;54759;48.094;-1.628;2023-03-01T19:06:36;21.50;29.50
40738;DHT22;54759;48.094;-1.628;2023-03-01T19:09:38;21.40;29.40
40738;DHT22;54759;48.094;-1.628;2023-03-01T19:12:40;21.50;29.50
40738;DHT22;54759;48.094;-1.628;2023-03-01T19:15:41;21.70;29.60
40738;DHT22;54759;48.094;-1.628;2023-03-01T19:18:44;21.40;29.50
40738;DHT22;54759;48.094;-1.628;2023-03-01T19:21:52;21.60;29.70
40738;DHT22;54759;48.094;-1.628;2023-03-01T19:25:06;21.50;29.70
40738;DHT22;54759;48.094;-1.628;2023-03-01T19:28:07;21.70;29.70
40738;DHT22;54759;48.094;-1.628;2023-03-01T19:31:09;21.50;29.80
40738;DHT22;54759;48.094;-1.628;2023-03-01T19:34:11;21.10;29.50
40738;DHT22;54759;48.094;-1.628;2023-03-01T19:37:15;21.40;29.80
40738;DHT22;54759;48.094;-1.628;2023-03-01T19:40:16;21.20;29.70
40738;DHT22;54759;48.094;-1.628;2023-03-01T19:43:18;21.50;29.80
40738;DHT22;54759;48.094;-1.628;2023-03-01T19:46:20;21.00;29.60
40738;DHT22;54759;48.094;-1.628;2023-03-01T19:49:22;21.20;29.90
40738;DHT22;54759;48.094;-1.628;2023-03-01T19:52:24;21.40;29.90
40738;DHT22;54759;48.094;-1.628;2023-03-01T19:55:25;21.30;29.90
40738;DHT22;54759;48.094;-1.628;2023-03-01T19:58:27;21.30;29.90
40738;DHT22;54759;48.094;-1.628;2023-03-01T20:01:28;21.00;29.80
40738;DHT22;54759;48.094;-1.628;2023-03-01T20:04:32;21.30;30.00
40738;DHT22;54759;48.094;-1.628;2023-03-01T20:07:34;21.10;30.00
40738;DHT22;54759;48.094;-1.628;2023-03-01T20:10:35;21.30;30.00
40738;DHT22;54759;48.094;-1.628;2023-03-01T20:13:36;21.20;30.00
40738;DHT22;54759;48.094;-1.628;2023-03-01T20:16:38;21.30;30.00
40738;DHT22;54759;48.094;-1.628;2023-03-01T20:19:40;20.70;29.80
40738;DHT22;54759;48.094;-1.628;2023-03-01T20:22:41;20.80;30.00
40738;DHT22;54759;48.094;-1.628;2023-03-01T20:25:43;20.70;30.00
40738;DHT22;54759;48.094;-1.628;2023-03-01T20:28:45;21.40;30.20
40738;DHT22;54759;48.094;-1.628;2023-03-01T20:31:46;20.80;30.00
40738;DHT22;54759;48.094;-1.628;2023-03-01T20:34:48;21.10;30.10
40738;DHT22;54759;48.094;-1.628;2023-03-01T20:37:50;20.60;30.00
40738;DHT22;54759;48.094;-1.628;2023-03-01T20:40:56;21.00;30.10
40738;DHT22;54759;48.094;-1.628;2023-03-01T20:43:57;21.10;30.10
40738;DHT22;54759;48.094;-1.628;2023-03-01T20:47:00;20.70;30.10
40738;DHT22;54759;48.094;-1.628;2023-03-01T20:50:02;20.80;30.30
40738;DHT22;54759;48.094;-1.628;2023-03-01T20:53:04;21.10;30.30
40738;DHT22;54759;48.094;-1.628;2023-03-01T20:56:06;21.10;30.30
40738;DHT22;54759;48.094;-1.628;2023-03-01T20:59:09;21.20;30.50
40738;DHT22;54759;48.094;-1.628;2023-03-01T21:02:12;20.60;30.10
40738;DHT22;54759;48.094;-1.628;2023-03-01T21:05:13;20.50;30.20
40738;DHT22;54759;48.094;-1.628;2023-03-01T21:08:15;20.80;30.50
40738;DHT22;54759;48.094;-1.628;2023-03-01T21:11:16;21.20;30.70
40738;DHT22;54759;48.094;-1.628;2023-03-01T21:14:19;20.90;30.40
40738;DHT22;54759;48.094;-1.628;2023-03-01T21:17:21;21.20;30.70
40738;DHT22;54759;48.094;-1.628;2023-03-01T21:20:23;20.60;30.50
40738;DHT22;54759;48.094;-1.628;2023-03-01T21:23:25;20.80;30.40
40738;DHT22;54759;48.094;-1.628;2023-03-01T21:26:26;20.90;30.60
40738;DHT22;54759;48.094;-1.628;2023-03-01T21:29:28;20.40;30.70
40738;DHT22;54759;48.094;-1.628;2023-03-01T21:32:29;20.80;30.70
40738;DHT22;54759;48.094;-1.628;2023-03-01T21:35:31;20.40;30.60
40738;DHT22;54759;48.094;-1.628;2023-03-01T21:38:34;20.60;30.90
40738;DHT22;54759;48.094;-1.628;2023-03-01T21:41:36;21.20;31.10
40738;DHT22;54759;48.094;-1.628;2023-03-01T21:44:37;20.70;30.80
40738;DHT22;54759;48.094;-1.628;2023-03-01T21:47:39;20.20;30.80
40738;DHT22;54759;48.094;-1.628;2023-03-01T21:50:41;20.60;30.60
40738;DHT22;54759;48.094;-1.628;2023-03-01T21:53:42;21.20;31.30
40738;DHT22;54759;48.094;-1.628;2023-03-01T21:56:44;20.40;30.90
40738;DHT22;54759;48.094;-1.628;2023-03-01T21:59:45;20.20;30.60
40738;DHT22;54759;48.094;-1.628;2023-03-01T22:02:46;20.50;30.90
40738;DHT22;54759;48.094;-1.628;2023-03-01T22:05:53;20.60;31.00
40738;DHT22;54759;48.094;-1.628;2023-03-01T22:08:55;20.60;30.90
40738;DHT22;54759;48.094;-1.628;2023-03-01T22:11:57;20.80;31.10
40738;DHT22;54759;48.094;-1.628;2023-03-01T22:15:01;20.50;31.10
40738;DHT22;54759;48.094;-1.628;2023-03-01T22:18:03;20.10;30.90
40738;DHT22;54759;48.094;-1.628;2023-03-01T22:21:06;20.10;30.50